22. Mai 2022

Uhrzeit Code Wetter Temp. Sichtweite Wolken Wind METAR/SPECI
17:30
V
26 °C 10 km+ - 170°   170° 15 kt METAR HUEN 221430Z 17015KT 9999 FEW024 FEW026CB 26/20 Q1015
17:00
V
26 °C 10 km+ - 180°   180° 16 kt METAR HUEN 221400Z 18016KT 9999 FEW024 FEW026CB 26/20 Q1015
00:00
V
23 °C 10 km+ - 200°   200° 3 kt METAR HUEN 212100Z 20003KT 9999 FEW021 FEW023CB 23/20 Q1018 NOSIG

21. Mai 2022

Uhrzeit Code Wetter Temp. Sichtweite Wolken Wind METAR/SPECI
23:00
V
23 °C 10 km+ - 170°   170° 4 kt METAR HUEN 212000Z 17004KT 9999 FEW022 FEW024CB 23/20 Q1018 NOSIG
22:30
V
23 °C 10 km+ - 190°   190° 5 kt METAR HUEN 211930Z 19005KT 9999 FEW022 FEW024CB 23/19 Q1018 NOSIG
22:00
V
23 °C 10 km+ - 210°   210° 4 kt METAR HUEN 211900Z 21004KT 9999 FEW022 FEW024CB 23/20 Q1017 NOSIG
21:30
V
24 °C 10 km+ - 210°   210° 4 kt METAR HUEN 211830Z 21004KT 9999 FEW022 FEW024CB 24/20 Q1018 NOSIG
21:00
V
24 °C 10 km+ - 210°   210° 5 kt METAR HUEN 211800Z 21005KT 9999 FEW023 FEW025CB 24/19 Q1017 NOSIG
19:30
V
24 °C 10 km+ - 210°   210° 5 kt METAR HUEN 211630Z 21005KT 9999 FEW023 FEW025CB 24/20 Q1016 NOSIG
19:00
V
24 °C 10 km+ - 210°   210° 5 kt METAR HUEN 211600Z 21005KT 9999 FEW023 FEW025CB 24/20 Q1016 NOSIG
18:30
V
25 °C 10 km+ - 210°   210° 8 kt METAR HUEN 211530Z 21008KT 9999 FEW023 FEW025CB 25/20 Q1016 NOSIG
18:00
V
25 °C 10 km+ - 180°   180° 10 kt METAR HUEN 211500Z 18010KT 9999 FEW024 FEW026CB 25/20 Q1016 NOSIG
17:30
V
26 °C 10 km+ - 200°   200° 15 kt METAR HUEN 211430Z 20015KT 9999 FEW024 FEW026CB 26/20 Q1016 NOSIG
08:30
V
23 °C 10 km+ - 190°   190° 10 kt METAR HUEN 210530Z 19010KT 9999 FEW022 23/19 Q1018
08:00
V
23 °C 10 km+ - 190°   190° 12 kt METAR HUEN 210500Z 19012KT 9999 FEW022 23/20 Q1018
07:30
V
23 °C 10 km+ - 160°   160° 14 kt METAR HUEN 210430Z 16014KT 9999 FEW022 23/19 Q1018
07:00
V
22 °C 10 km+ - 170°   170° 14 kt METAR HUEN 210400Z 17014KT 9999 FEW022 22/19 Q1017
06:30
V
23 °C 10 km+ - 160°   160° 12 kt METAR HUEN 210330Z 16012KT 9999 FEW022 23/20 Q1017
06:00
V
23 °C 10 km+ - 160°   160° 15 kt METAR HUEN 210300Z 16015KT 9999 FEW022 23/20 Q1017
05:30
V
23 °C 10 km+ - 160°   160° 8 kt METAR HUEN 210230Z 16008KT 9999 FEW 022 23/20 Q1016
04:00
V
22 °C 10 km+ - Var   000° 0 kt METAR HUEN 210100Z 00000KT 9999 FEW 022 22/21 Q1016
03:30
V
22 °C 10 km+ - 200°   200° 3 kt METAR HUEN 210030Z 20003KT 9999 FEW022 22/21 Q1016
02:30
V
22 °C 10 km+ - Var   000° 0 kt METAR HUEN 202330Z 00000KT 9999 FEW022 22/20 Q1016 NOSIG
02:00
V
22 °C 10 km+ - 180°   180° 3 kt METAR HUEN 202300Z 18003KT 9999 FEW022 22/20 Q1016
01:30
V
22 °C 10 km+ - Var   000° 0 kt METAR HUEN 202230Z 00000KT 9999 FEW022 22/21 Q1017
01:00
V
22 °C 10 km+ - Var   000° 0 kt METAR HUEN 202200Z 00000KT 9999 FEW022 22/21 Q1017
00:30
V
22 °C 10 km+ - Var   000° 0 kt METAR HUEN 202130Z 00000KT CAVOK 22/20 Q1017 NOSIG
00:00
V
22 °C 10 km+ - 020°   020° 4 kt METAR HUEN 202100Z 02004KT CAVOK 22/21 Q1017 NOSIG

20. Mai 2022

Uhrzeit Code Wetter Temp. Sichtweite Wolken Wind METAR/SPECI
23:30
V
23 °C 10 km+ - Var   000° 0 kt METAR HUEN 202030Z 00000KT CAVOK 23/20 Q1017 NOSIG
23:00
V
23 °C 10 km+ - Var   000° 0 kt METAR HUEN 202000Z 00000KT CAVOK 23/20 Q1017 NOSIG
22:30
V
23 °C 10 km+ - 180°   180° 4 kt METAR HUEN 201930Z 18004KT CAVOK 23/20 Q1017 NOSIG
22:00
V
23 °C 10 km+ - 200°   200° 5 kt METAR HUEN 201900Z 20005KT CAVOK 23/20 Q1017 NOSIG
21:30
V
24 °C 10 km+ - 190°   190° 5 kt METAR HUEN 201830Z 19005KT CAVOK 24/20 Q1017
21:00
V
24 °C 10 km+ - 190°   190° 6 kt METAR HUEN 201800Z 19006KT CAVOK 24/19 Q1016
20:30
V
24 °C 10 km+ - 190°   190° 7 kt METAR HUEN 201730Z 19007KT 9999 FEW023 24/19 Q1016
20:00
V
24 °C 10 km+ - 180°   180° 8 kt METAR HUEN 201700Z 18008KT 9999 FEW023 24/19 Q1016
19:30
V
24 °C 10 km+ - 180°   180° 10 kt METAR HUEN 201630Z 18010KT 9999 FEW023 24/20 Q1016
19:00
V
25 °C 10 km+ - 180°   180° 10 kt METAR HUEN 201600Z 18010KT 9999 FEW023 25/20 Q1015
18:30
V
25 °C 10 km+ - 170°   170° 15 kt METAR HUEN 201530Z 17015KT 9999 FEW023 FEW025CB 25/20 Q1015
18:00
V
25 °C 10 km+ - 180°   180° 15 kt METAR HUEN 201500Z 18015KT 9999 FEW023 FEW025CB 25/20 Q1015
Ältere Daten

Laden Sie unsere App herunter

Einfacher Zugriff auf das gesamte Flugwetter auf Ihrem Mobiltelefon und Tablet.
Mit vielen Funktionen, die auf der Website nicht verfügbar sind, wie Offline-Unterstützung und eine persönliche Flughafenliste.

Wir und Dritte verfolgen dein Internetverhalten auf unserer Website mit Cookies. Wenn du fortfährst, gehen wir davon aus, dass du mit unserer Cookie-Richtlinie einverstanden bist. Mehr erfahren